Time;durP1;ratioP1;P1;durP2;ratioP2;P2;SDS_P1;SDS_P2;PMS_P1;PMS_P2;Temp;Humidity;BMP_temperature;BMP_pressure;BME280_temperature;BME280_humidity;BME280_pressure;Samples;Min_cycle;Max_cycle;Signal;HPM_P1;HPM_P2
2021/01/05 00:02:00;;;;;;;8.52;3.58;;;1.90;99.90;;;;;;5034288;28;20022;-77
2021/01/05 00:04:33;;;;;;;6.65;3.58;;;1.90;99.90;;;;;;5025887;28;20025;-77
2021/01/05 00:07:08;;;;;;;6.25;4.05;;;1.90;99.90;;;;;;5014447;28;20021;-76
2021/01/05 00:09:34;;;;;;;7.38;3.90;;;1.90;99.90;;;;;;5031182;28;20132;-77
2021/01/05 00:12:01;;;;;;;5.82;3.58;;;1.90;99.90;;;;;;5033308;28;20560;-77
2021/01/05 00:14:26;;;;;;;5.97;3.83;;;1.80;99.90;;;;;;5029605;28;20559;-77
2021/01/05 00:16:52;;;;;;;6.63;4.20;;;1.80;99.90;;;;;;5014267;28;20112;-77
2021/01/05 00:19:23;;;;;;;9.00;4.30;;;1.80;99.90;;;;;;5014122;28;20036;-77
2021/01/05 00:21:50;;;;;;;7.93;3.53;;;1.80;99.90;;;;;;5012887;28;20034;-77
2021/01/05 00:24:16;;;;;;;15.70;3.58;;;1.90;99.90;;;;;;5013861;28;20060;-77
2021/01/05 00:26:41;;;;;;;10.57;3.72;;;1.90;99.90;;;;;;5033187;28;20099;-77
2021/01/05 00:29:08;;;;;;;11.63;3.05;;;1.90;99.90;;;;;;5033685;28;20029;-77
2021/01/05 00:31:34;;;;;;;6.13;3.33;;;1.90;99.90;;;;;;5033818;28;20104;-77
2021/01/05 00:33:59;;;;;;;6.53;3.22;;;1.90;99.90;;;;;;5030233;28;20105;-77
2021/01/05 00:36:25;;;;;;;7.13;3.22;;;1.90;99.90;;;;;;5013734;28;20101;-77
2021/01/05 00:38:51;;;;;;;9.77;3.55;;;2.00;99.90;;;;;;5013882;28;20057;-77
2021/01/05 00:41:16;;;;;;;4.53;3.00;;;2.00;99.90;;;;;;5012334;28;20030;-77
2021/01/05 00:43:42;;;;;;;5.47;3.08;;;2.00;99.90;;;;;;5013579;28;20018;-77
2021/01/05 00:46:11;;;;;;;6.40;2.78;;;1.90;99.90;;;;;;5031120;28;20026;-77
2021/01/05 00:48:36;;;;;;;4.75;3.15;;;1.90;99.90;;;;;;5032843;28;20037;-77
2021/01/05 00:51:02;;;;;;;6.97;3.08;;;1.90;99.90;;;;;;5033404;28;20036;-77
2021/01/05 00:53:28;;;;;;;3.75;2.85;;;1.90;99.90;;;;;;5032052;28;20034;-77
2021/01/05 00:55:53;;;;;;;7.57;3.10;;;2.00;99.90;;;;;;5019796;28;20046;-77
2021/01/05 00:58:23;;;;;;;5.00;3.00;;;2.00;99.90;;;;;;5011980;28;20612;-77
2021/01/05 01:00:50;;;;;;;8.57;3.03;;;1.90;99.90;;;;;;5012296;28;20113;-76
2021/01/05 01:03:16;;;;;;;7.07;3.55;;;1.90;99.90;;;;;;5013438;28;20460;-77
2021/01/05 01:05:42;;;;;;;8.32;2.90;;;2.00;99.90;;;;;;5029833;28;20025;-77
2021/01/05 01:08:07;;;;;;;5.75;2.90;;;1.90;99.90;;;;;;5033124;28;20363;-77
2021/01/05 01:10:33;;;;;;;4.90;2.88;;;1.90;99.90;;;;;;5033040;28;20101;-77
2021/01/05 01:12:59;;;;;;;4.10;2.85;;;1.90;99.90;;;;;;5031538;28;20029;-77
2021/01/05 01:15:24;;;;;;;5.82;2.75;;;2.00;99.90;;;;;;5019475;28;20053;-77
2021/01/05 01:17:50;;;;;;;4.05;2.53;;;2.00;99.90;;;;;;5013125;28;20478;-77
2021/01/05 01:20:16;;;;;;;5.35;2.65;;;2.00;99.90;;;;;;5011695;28;20168;-77
2021/01/05 01:22:41;;;;;;;7.13;3.05;;;1.90;99.90;;;;;;5011832;28;20026;-77
2021/01/05 01:25:07;;;;;;;6.50;3.10;;;1.90;99.90;;;;;;5025913;28;20033;-77
2021/01/05 01:27:33;;;;;;;6.28;2.50;;;1.90;99.90;;;;;;5051128;28;20433;-77
2021/01/05 01:29:58;;;;;;;4.05;2.55;;;1.90;99.90;;;;;;5052604;28;20056;-77
2021/01/05 01:32:24;;;;;;;5.22;2.85;;;1.90;99.90;;;;;;5052591;28;20079;-77
2021/01/05 01:34:49;;;;;;;5.53;3.17;;;1.90;99.90;;;;;;5041320;28;20075;-77
2021/01/05 01:37:17;;;;;;;6.22;3.40;;;1.90;99.90;;;;;;5031332;28;20026;-77
2021/01/05 01:39:44;;;;;;;3.58;2.78;;;1.90;99.90;;;;;;5032416;28;20065;-77
2021/01/05 01:42:12;;;;;;;5.45;3.08;;;2.00;99.90;;;;;;5032431;28;20029;-77
2021/01/05 01:44:40;;;;;;;5.38;3.10;;;1.90;99.90;;;;;;5026757;28;20076;-77
2021/01/05 01:47:10;;;;;;;4.00;2.83;;;1.90;99.90;;;;;;5011394;28;20054;-77
2021/01/05 01:49:36;;;;;;;8.82;3.05;;;1.90;99.90;;;;;;5012459;28;20026;-77
2021/01/05 01:52:02;;;;;;;4.68;2.70;;;1.90;99.90;;;;;;5012613;28;20053;-77
2021/01/05 01:55:05;;;;;;;5.25;2.88;;;2.00;99.90;;;;;;5012842;28;20025;-77
2021/01/05 01:57:55;;;;;;;10.33;3.33;;;2.00;99.90;;;;;;5032146;28;20053;-77
2021/01/05 02:00:29;;;;;;;3.28;2.70;;;2.00;99.90;;;;;;5030789;28;20036;-77
2021/01/05 02:03:23;;;;;;;5.15;2.97;;;2.00;99.90;;;;;;5032060;28;20370;-77
2021/01/05 02:06:27;;;;;;;6.85;2.75;;;2.00;99.90;;;;;;5013641;28;20073;-76
2021/01/05 02:09:16;;;;;;;11.77;3.10;;;2.00;99.90;;;;;;5012416;28;20030;-77
2021/01/05 02:11:59;;;;;;;4.38;2.58;;;2.00;99.90;;;;;;5012249;28;20026;-76
2021/01/05 02:14:57;;;;;;;6.25;2.58;;;2.00;99.90;;;;;;5015371;28;20112;-76
2021/01/05 02:17:35;;;;;;;4.53;2.55;;;2.00;99.90;;;;;;5030693;28;20037;-77
2021/01/05 02:20:14;;;;;;;4.93;3.00;;;1.90;99.90;;;;;;5030225;28;20079;-77
2021/01/05 02:22:42;;;;;;;6.72;3.58;;;1.90;99.90;;;;;;5031914;28;20042;-77
2021/01/05 02:25:27;;;;;;;6.55;2.42;;;1.80;99.90;;;;;;5024775;28;20049;-77
2021/01/05 02:27:59;;;;;;;5.35;2.92;;;1.80;99.90;;;;;;5012037;28;20076;-77
2021/01/05 02:30:33;;;;;;;4.57;3.13;;;1.80;99.90;;;;;;5012134;28;20041;-76
2021/01/05 02:33:18;;;;;;;7.53;3.05;;;1.70;99.90;;;;;;5010852;28;20045;-77
2021/01/05 02:35:54;;;;;;;8.00;2.92;;;1.60;99.90;;;;;;5028615;28;20022;-77
2021/01/05 02:38:56;;;;;;;5.22;2.38;;;1.60;99.90;;;;;;5031685;28;20068;-77
2021/01/05 02:41:43;;;;;;;5.15;2.88;;;1.60;99.90;;;;;;5031639;28;20390;-77
2021/01/05 02:44:44;;;;;;;3.65;3.00;;;1.60;99.90;;;;;;5029836;28;20030;-77
2021/01/05 02:47:31;;;;;;;5.60;2.60;;;1.60;99.90;;;;;;5029167;28;20049;-76
2021/01/05 02:50:12;;;;;;;4.57;3.05;;;1.60;99.90;;;;;;5031289;28;20052;-76
2021/01/05 02:53:14;;;;;;;5.53;2.70;;;1.60;99.90;;;;;;5031724;28;20029;-76
2021/01/05 02:55:48;;;;;;;5.00;2.72;;;1.50;99.90;;;;;;5029514;28;20037;-76
2021/01/05 02:58:17;;;;;;;5.00;2.72;;;1.50;99.90;;;;;;5031509;28;20026;-76
2021/01/05 03:01:16;;;;;;;5.10;2.67;;;1.40;99.90;;;;;;5031301;28;20026;-76
2021/01/05 03:03:45;;;;;;;4.50;2.88;;;1.40;99.90;;;;;;5030707;28;20076;-76
2021/01/05 03:06:11;;;;;;;7.40;2.33;;;1.40;99.90;;;;;;5011787;28;20026;-77
2021/01/05 03:08:49;;;;;;;4.80;2.90;;;1.40;99.90;;;;;;5011745;28;20426;-77
2021/01/05 03:11:22;;;;;;;3.78;2.47;;;1.40;99.90;;;;;;5011748;28;20037;-77
2021/01/05 03:13:47;;;;;;;4.55;2.70;;;1.40;99.90;;;;;;5011466;28;20064;-76
2021/01/05 03:16:32;;;;;;;6.30;3.20;;;1.50;99.90;;;;;;5029471;28;20061;-77
2021/01/05 03:19:25;;;;;;;17.65;2.92;;;1.50;99.90;;;;;;5029768;28;20513;-76
2021/01/05 03:21:56;;;;;;;6.68;2.70;;;1.50;99.90;;;;;;5030060;28;20396;-76
2021/01/05 03:24:24;;;;;;;9.02;3.00;;;1.60;99.90;;;;;;5030545;28;20092;-76
2021/01/05 03:26:51;;;;;;;7.00;2.60;;;1.50;99.90;;;;;;5031138;28;20452;-76
2021/01/05 03:29:18;;;;;;;4.55;2.22;;;1.50;99.90;;;;;;5030101;28;20021;-76
2021/01/05 03:31:51;;;;;;;4.47;2.65;;;1.50;99.90;;;;;;5031235;28;20397;-76
2021/01/05 03:34:17;;;;;;;5.45;3.05;;;1.60;99.90;;;;;;5030300;28;20433;-76
2021/01/05 03:36:43;;;;;;;5.07;2.65;;;1.60;99.90;;;;;;5031107;28;20079;-76
2021/01/05 03:39:09;;;;;;;2.90;2.38;;;1.60;99.90;;;;;;5029941;28;20030;-77
2021/01/05 03:41:35;;;;;;;7.97;2.83;;;1.60;99.90;;;;;;5031112;28;20401;-76
2021/01/05 03:44:00;;;;;;;6.68;2.38;;;1.70;99.90;;;;;;5030639;28;20025;-76
2021/01/05 03:46:28;;;;;;;3.72;2.35;;;1.70;99.90;;;;;;5023097;28;20034;-76
2021/01/05 03:48:54;;;;;;;5.05;2.67;;;1.80;99.90;;;;;;5034371;28;20393;-77
2021/01/05 03:51:20;;;;;;;12.90;2.92;;;1.80;99.90;;;;;;5032237;28;20401;-76
2021/01/05 03:53:45;;;;;;;4.05;2.53;;;1.80;99.90;;;;;;5032185;28;20025;-77
2021/01/05 03:56:11;;;;;;;8.70;2.88;;;1.90;99.90;;;;;;5019126;28;20038;-76
2021/01/05 03:58:37;;;;;;;4.88;2.55;;;1.90;99.90;;;;;;5014731;28;20389;-76
2021/01/05 04:01:03;;;;;;;4.60;2.60;;;1.90;99.90;;;;;;5014492;28;20040;-76
2021/01/05 04:03:29;;;;;;;5.80;2.72;;;1.90;99.90;;;;;;5014562;28;20372;-76
2021/01/05 04:05:55;;;;;;;7.22;2.88;;;1.90;99.90;;;;;;5032675;28;20029;-76
2021/01/05 04:08:21;;;;;;;6.45;2.22;;;1.90;99.90;;;;;;5034264;28;20032;-76
2021/01/05 04:10:47;;;;;;;3.83;2.78;;;1.90;99.90;;;;;;5034217;28;20021;-76
2021/01/05 04:13:12;;;;;;;6.22;2.50;;;2.00;99.90;;;;;;5034219;28;20030;-76
2021/01/05 04:15:38;;;;;;;10.43;2.60;;;2.00;99.90;;;;;;5019076;28;20414;-76
2021/01/05 04:18:04;;;;;;;4.13;2.42;;;2.00;99.90;;;;;;5014300;28;20057;-76
2021/01/05 04:20:31;;;;;;;6.53;2.97;;;2.00;99.90;;;;;;5014109;28;20038;-76
2021/01/05 04:22:57;;;;;;;3.97;2.97;;;2.00;99.90;;;;;;5013019;28;20438;-76
2021/01/05 04:25:23;;;;;;;12.38;4.43;;;1.90;99.90;;;;;;5022086;28;20026;-76
2021/01/05 04:27:50;;;;;;;6.85;2.53;;;1.90;99.90;;;;;;5033966;28;20021;-76
2021/01/05 04:30:16;;;;;;;8.65;2.97;;;1.90;99.90;;;;;;5033864;28;20025;-76
2021/01/05 04:32:42;;;;;;;7.53;2.90;;;2.00;99.90;;;;;;5033781;28;20034;-76
2021/01/05 04:35:08;;;;;;;5.68;2.53;;;1.90;99.90;;;;;;5044052;28;20039;-76
2021/01/05 04:37:33;;;;;;;3.25;2.45;;;1.90;99.90;;;;;;5053645;28;20056;-76
2021/01/05 04:39:59;;;;;;;8.00;2.97;;;1.90;99.90;;;;;;5053532;28;20102;-76
2021/01/05 04:42:29;;;;;;;6.90;2.50;;;1.90;99.90;;;;;;5052293;28;20031;-76
2021/01/05 04:45:02;;;;;;;8.65;2.75;;;1.90;99.90;;;;;;5044810;28;20022;-76
2021/01/05 04:47:46;;;;;;;5.00;2.70;;;1.90;99.90;;;;;;5032185;28;20022;-76
2021/01/05 04:50:41;;;;;;;8.15;2.72;;;1.90;99.90;;;;;;5020735;28;20030;-76
2021/01/05 04:53:21;;;;;;;8.68;2.28;;;1.90;99.90;;;;;;5012452;28;20034;-76
2021/01/05 04:56:01;;;;;;;7.70;2.92;;;1.90;99.90;;;;;;5024617;28;20513;-76
2021/01/05 04:58:46;;;;;;;3.55;2.10;;;2.00;99.90;;;;;;5033151;28;20030;-76
2021/01/05 05:01:22;;;;;;;8.35;2.25;;;1.90;99.90;;;;;;5033243;28;20033;-76
2021/01/05 05:03:57;;;;;;;4.72;2.80;;;1.90;99.90;;;;;;5031749;28;20513;-76
2021/01/05 05:06:32;;;;;;;9.00;3.42;;;2.00;99.90;;;;;;5011948;28;20033;-76
2021/01/05 05:09:19;;;;;;;4.60;3.15;;;2.00;99.90;;;;;;5013436;28;20027;-76
2021/01/05 05:12:23;;;;;;;3.83;2.25;;;2.00;99.90;;;;;;5013359;28;20036;-76
2021/01/05 05:15:15;;;;;;;7.43;3.15;;;2.00;99.90;;;;;;5017801;28;20196;-76
2021/01/05 05:17:46;;;;;;;5.93;2.90;;;2.00;99.90;;;;;;5033059;28;20029;-76
2021/01/05 05:20:38;;;;;;;4.22;2.55;;;2.00;99.90;;;;;;5031010;28;20087;-76
2021/01/05 05:23:13;;;;;;;7.70;3.03;;;2.00;99.90;;;;;;5032853;28;20032;-76
2021/01/05 05:25:48;;;;;;;4.00;2.53;;;2.00;99.90;;;;;;5020724;28;20033;-76
2021/01/05 05:28:24;;;;;;;8.73;3.33;;;2.00;99.90;;;;;;5013115;28;20212;-76
2021/01/05 05:30:50;;;;;;;5.05;2.83;;;2.00;99.90;;;;;;5012944;28;20033;-76
2021/01/05 05:33:45;;;;;;;5.78;2.70;;;2.00;99.90;;;;;;5012875;28;20037;-77
2021/01/05 05:36:39;;;;;;;3.50;2.17;;;2.00;99.90;;;;;;5011505;28;20065;-76
2021/01/05 05:39:34;;;;;;;4.93;2.72;;;2.00;99.90;;;;;;5012877;28;20398;-76
2021/01/05 05:42:14;;;;;;;4.60;2.67;;;2.00;99.90;;;;;;5009687;28;20046;-76
2021/01/05 05:44:52;;;;;;;6.22;2.92;;;2.00;99.90;;;;;;5012850;28;20386;-76
2021/01/05 05:47:31;;;;;;;5.15;2.22;;;2.00;99.90;;;;;;5012771;28;20049;-76
2021/01/05 05:50:07;;;;;;;4.05;2.60;;;2.00;99.90;;;;;;5012644;28;20037;-76
2021/01/05 05:52:45;;;;;;;7.25;2.45;;;1.90;99.90;;;;;;5012612;28;20508;-76
2021/01/05 05:55:39;;;;;;;3.25;2.20;;;1.90;99.90;;;;;;5018493;28;20082;-77
2021/01/05 05:58:05;;;;;;;3.45;2.47;;;1.80;99.90;;;;;;5031066;28;20036;-76
2021/01/05 06:00:33;;;;;;;6.28;2.65;;;1.80;99.90;;;;;;5031999;28;20060;-76
2021/01/05 06:03:04;;;;;;;6.65;2.67;;;1.70;99.90;;;;;;5030942;28;20025;-76
2021/01/05 06:05:35;;;;;;;3.90;2.40;;;1.70;99.90;;;;;;5016962;28;20482;-77
2021/01/05 06:08:01;;;;;;;9.50;2.53;;;1.70;99.90;;;;;;5012229;28;20034;-76
2021/01/05 06:10:27;;;;;;;6.15;2.72;;;1.70;99.90;;;;;;5011956;28;20399;-76
2021/01/05 06:12:53;;;;;;;4.78;2.50;;;1.70;99.90;;;;;;5010980;28;20033;-76
2021/01/05 06:15:19;;;;;;;5.47;2.70;;;1.70;99.90;;;;;;5022233;28;20034;-76
2021/01/05 06:17:45;;;;;;;7.30;2.83;;;1.70;99.90;;;;;;5031992;28;20053;-76
2021/01/05 06:20:11;;;;;;;5.25;2.78;;;1.70;99.90;;;;;;5031552;28;20107;-76
2021/01/05 06:22:36;;;;;;;5.55;3.05;;;1.70;99.90;;;;;;5032023;28;20029;-76
2021/01/05 06:25:04;;;;;;;6.03;2.85;;;1.70;99.90;;;;;;5026059;28;20045;-76
2021/01/05 06:27:29;;;;;;;4.40;2.55;;;1.70;99.90;;;;;;5012071;28;20029;-76
2021/01/05 06:29:55;;;;;;;6.20;2.55;;;1.70;99.90;;;;;;5012098;28;20037;-76
2021/01/05 06:32:20;;;;;;;12.93;2.78;;;1.70;99.90;;;;;;5012099;28;20037;-76
2021/01/05 06:34:46;;;;;;;4.50;2.88;;;1.70;99.90;;;;;;5020452;28;20029;-76
2021/01/05 06:37:11;;;;;;;5.40;2.70;;;1.70;99.90;;;;;;5031728;28;20024;-77
2021/01/05 06:39:37;;;;;;;10.82;2.22;;;1.70;99.90;;;;;;5031782;28;20052;-76
2021/01/05 06:42:03;;;;;;;3.08;2.40;;;1.80;99.90;;;;;;5031596;28;20490;-76
2021/01/05 06:44:28;;;;;;;6.55;2.63;;;1.80;99.90;;;;;;5027601;28;20037;-77
2021/01/05 06:46:54;;;;;;;5.93;2.40;;;1.80;99.90;;;;;;5011989;28;20037;-76
2021/01/05 06:49:19;;;;;;;4.38;2.50;;;1.90;99.90;;;;;;5011782;28;20026;-76
2021/01/05 06:51:45;;;;;;;7.68;2.38;;;1.90;99.90;;;;;;5011983;28;20026;-76
2021/01/05 06:54:11;;;;;;;3.83;2.03;;;1.80;99.90;;;;;;5011522;28;20030;-76
2021/01/05 06:56:53;;;;;;;4.70;1.70;;;1.90;99.90;;;;;;5029684;28;20502;-77
2021/01/05 06:59:19;;;;;;;5.28;2.40;;;1.90;99.90;;;;;;5030477;28;20041;-77
2021/01/05 07:02:00;;;;;;;6.82;2.35;;;1.90;99.90;;;;;;5031470;28;20120;-76
2021/01/05 07:04:26;;;;;;;4.32;2.20;;;1.90;99.90;;;;;;5023760;28;20486;-76
2021/01/05 07:06:53;;;;;;;2.50;1.90;;;1.90;99.90;;;;;;5011569;28;20156;-76
2021/01/05 07:09:21;;;;;;;7.28;3.05;;;1.90;99.90;;;;;;5010469;28;20387;-76
2021/01/05 07:11:46;;;;;;;9.60;2.60;;;1.90;99.90;;;;;;5010512;28;20049;-76
2021/01/05 07:14:13;;;;;;;5.90;2.13;;;1.90;99.90;;;;;;5011419;28;20478;-76
2021/01/05 07:16:39;;;;;;;8.48;2.85;;;1.90;99.90;;;;;;5010472;28;20026;-76
2021/01/05 07:19:05;;;;;;;6.82;2.42;;;1.90;99.90;;;;;;5011976;28;20656;-76
2021/01/05 07:21:30;;;;;;;8.60;2.65;;;1.90;99.90;;;;;;5014673;28;20025;-76
2021/01/05 07:23:56;;;;;;;3.25;2.10;;;2.00;99.90;;;;;;5015168;28;20117;-76
2021/01/05 07:26:22;;;;;;;5.20;2.97;;;2.00;99.90;;;;;;5015202;28;20109;-77
2021/01/05 07:28:47;;;;;;;7.90;2.50;;;2.00;99.90;;;;;;5029176;28;20051;-76
2021/01/05 07:31:13;;;;;;;4.85;2.45;;;2.00;99.90;;;;;;5035000;28;20036;-76
2021/01/05 07:33:38;;;;;;;3.28;2.03;;;2.00;99.90;;;;;;5033646;28;20029;-77
2021/01/05 07:36:22;;;;;;;9.15;2.50;;;2.00;99.90;;;;;;5034523;28;20033;-77
2021/01/05 07:38:47;;;;;;;;;;;2.00;99.90;;;;;;5035415;28;20478;-76
2021/01/05 07:41:13;;;;;;;6.57;2.22;;;2.00;99.90;;;;;;5034720;28;19909;-76
2021/01/05 07:43:38;;;;;;;4.88;2.20;;;2.00;99.90;;;;;;5033502;28;20017;-77
2021/01/05 07:46:04;;;;;;;10.85;1.83;;;2.00;99.90;;;;;;5017890;28;20080;-76
2021/01/05 07:48:29;;;;;;;2.75;2.08;;;2.00;99.90;;;;;;5014884;28;20018;-76
2021/01/05 07:50:55;;;;;;;3.22;1.98;;;2.10;99.90;;;;;;5032761;28;20068;-76
2021/01/05 07:53:20;;;;;;;6.95;2.42;;;2.10;99.90;;;;;;5034620;28;20105;-76
2021/01/05 07:55:46;;;;;;;7.40;2.20;;;2.10;99.90;;;;;;5045137;28;20052;-76
2021/01/05 07:58:12;;;;;;;3.45;2.03;;;2.10;99.90;;;;;;5053085;28;20021;-77
2021/01/05 08:00:37;;;;;;;3.42;1.70;;;2.10;99.90;;;;;;5050984;28;20044;-77
2021/01/05 08:03:03;;;;;;;2.58;2.05;;;2.10;99.90;;;;;;5033591;28;20025;-76
2021/01/05 08:05:29;;;;;;;7.65;2.28;;;2.00;99.90;;;;;;5019030;28;20033;-74
2021/01/05 08:07:55;;;;;;;3.65;1.83;;;2.10;99.90;;;;;;5014360;28;20100;-77
2021/01/05 08:10:30;;;;;;;9.20;2.30;;;2.10;99.90;;;;;;5014125;28;20497;-76
2021/01/05 08:12:55;;;;;;;3.72;2.20;;;2.10;99.90;;;;;;5013096;28;20490;-76
2021/01/05 08:15:24;;;;;;;5.05;2.15;;;2.10;99.90;;;;;;5024500;28;20025;-76
2021/01/05 08:17:50;;;;;;;4.28;1.73;;;2.10;99.90;;;;;;5033889;28;20434;-76
2021/01/05 08:20:20;;;;;;;2.95;2.08;;;2.10;99.90;;;;;;5033539;28;20526;-76
2021/01/05 08:22:46;;;;;;;5.45;2.28;;;2.10;99.90;;;;;;5032598;28;20025;-76
2021/01/05 08:25:13;;;;;;;3.30;1.90;;;2.20;99.90;;;;;;5025449;28;20116;-76
2021/01/05 08:27:40;;;;;;;14.82;2.65;;;2.20;99.90;;;;;;5013983;28;20030;-76
2021/01/05 08:30:06;;;;;;;3.15;1.85;;;2.20;99.90;;;;;;5013996;28;20022;-76
2021/01/05 08:32:31;;;;;;;4.05;2.42;;;2.20;99.90;;;;;;5013252;28;20093;-76
2021/01/05 08:34:57;;;;;;;3.60;1.90;;;2.20;99.90;;;;;;5023637;28;20033;-76
2021/01/05 08:37:22;;;;;;;3.80;2.10;;;2.20;99.90;;;;;;5032392;28;20025;-76
2021/01/05 08:39:48;;;;;;;4.82;2.33;;;2.20;99.90;;;;;;5032337;28;20033;-76
2021/01/05 08:42:13;;;;;;;5.40;2.08;;;2.20;99.90;;;;;;5033611;28;20068;-77
2021/01/05 08:44:39;;;;;;;2.50;1.80;;;2.20;99.90;;;;;;5028185;28;20034;-77
2021/01/05 08:47:05;;;;;;;4.45;1.70;;;2.20;99.90;;;;;;5013511;28;20022;-76
2021/01/05 08:49:32;;;;;;;3.08;2.00;;;2.20;99.90;;;;;;5013655;28;20029;-76
2021/01/05 08:51:58;;;;;;;4.25;2.03;;;2.30;99.90;;;;;;5012288;28;20084;-76
2021/01/05 08:54:24;;;;;;;7.60;1.92;;;2.30;99.90;;;;;;5013425;28;20059;-76
2021/01/05 08:56:59;;;;;;;4.88;1.95;;;2.30;99.90;;;;;;5033157;28;20568;-76
2021/01/05 08:59:25;;;;;;;4.43;2.00;;;2.30;99.90;;;;;;5033054;28;20048;-77
2021/01/05 09:01:51;;;;;;;5.68;1.90;;;2.30;99.90;;;;;;5033014;28;20123;-76
2021/01/05 09:04:16;;;;;;;6.00;2.33;;;2.30;99.90;;;;;;5027994;28;20034;-76
2021/01/05 09:06:47;;;;;;;4.60;2.28;;;2.40;99.90;;;;;;5013397;28;20030;-76
2021/01/05 09:09:13;;;;;;;7.25;1.90;;;2.40;99.90;;;;;;5013353;28;20033;-76
2021/01/05 09:11:38;;;;;;;6.13;2.25;;;2.40;99.90;;;;;;5013403;28;20394;-76
2021/01/05 09:14:04;;;;;;;3.42;1.83;;;2.40;99.90;;;;;;5012753;28;20496;-76
2021/01/05 09:16:32;;;;;;;1.88;1.45;;;2.40;99.90;;;;;;5033087;28;20064;-76
2021/01/05 09:18:58;;;;;;;5.20;2.00;;;2.40;99.90;;;;;;5029271;28;20053;-76
2021/01/05 09:21:26;;;;;;;5.53;2.08;;;2.40;99.90;;;;;;5013112;28;20034;-77
2021/01/05 09:23:54;;;;;;;8.80;2.17;;;2.40;99.90;;;;;;5011821;28;20060;-76
2021/01/05 09:26:22;;;;;;;6.72;1.85;;;2.40;99.90;;;;;;5027380;28;20543;-76
2021/01/05 09:28:48;;;;;;;5.97;1.95;;;2.50;99.90;;;;;;5032678;28;20037;-76
2021/01/05 09:31:13;;;;;;;4.22;2.05;;;2.50;99.90;;;;;;5032629;28;20036;-76
2021/01/05 09:33:39;;;;;;;3.72;2.05;;;2.50;99.90;;;;;;5032585;28;20132;-77
2021/01/05 09:36:05;;;;;;;3.75;1.58;;;2.40;99.90;;;;;;5032125;28;20104;-76
2021/01/05 09:38:31;;;;;;;4.57;1.55;;;2.40;99.90;;;;;;5031268;28;20026;-76
2021/01/05 09:40:57;;;;;;;9.10;3.10;;;2.50;99.90;;;;;;5032416;28;20132;-76
2021/01/05 09:43:22;;;;;;;3.40;1.85;;;2.50;99.90;;;;;;5031545;28;20482;-76
2021/01/05 09:45:48;;;;;;;2.80;1.77;;;2.40;99.90;;;;;;5017701;28;20465;-76
2021/01/05 09:48:16;;;;;;;5.03;1.70;;;2.50;99.90;;;;;;5012505;28;20486;-76
2021/01/05 09:50:43;;;;;;;2.85;1.23;;;2.50;99.90;;;;;;5011368;28;20025;-76
2021/01/05 09:53:10;;;;;;;2.30;1.42;;;2.50;99.90;;;;;;5012477;28;20041;-76
2021/01/05 09:55:37;;;;;;;6.97;1.63;;;2.60;99.90;;;;;;5021749;28;20029;-76
2021/01/05 09:58:03;;;;;;;3.10;1.45;;;2.60;99.90;;;;;;5030906;28;20109;-76
2021/01/05 10:00:29;;;;;;;11.57;1.75;;;2.60;99.90;;;;;;5038962;28;20044;-76
2021/01/05 10:02:55;;;;;;;4.97;1.60;;;2.60;99.90;;;;;;5030884;28;20116;-76
2021/01/05 10:05:21;;;;;;;2.15;1.58;;;2.60;99.90;;;;;;5029082;28;20555;-76
2021/01/05 10:07:48;;;;;;;6.60;1.63;;;2.70;99.90;;;;;;5042809;28;20044;-76
2021/01/05 10:10:34;;;;;;;4.90;1.73;;;2.60;99.90;;;;;;5031029;28;20025;-76
2021/01/05 10:12:59;;;;;;;3.30;1.63;;;2.70;99.90;;;;;;5031773;28;20048;-75
2021/01/05 10:15:25;;;;;;;11.25;2.53;;;2.70;99.90;;;;;;5031824;28;20029;-76
2021/01/05 10:17:51;;;;;;;2.33;1.73;;;2.70;99.90;;;;;;5032033;28;20436;-76
2021/01/05 10:20:20;;;;;;;6.00;2.00;;;2.70;99.90;;;;;;5031703;28;20499;-77
2021/01/05 10:22:47;;;;;;;5.85;1.60;;;2.70;99.90;;;;;;5031550;28;20551;-76
2021/01/05 10:25:14;;;;;;;4.72;1.90;;;2.70;99.90;;;;;;5030208;28;20398;-76
2021/01/05 10:27:39;;;;;;;1.85;1.40;;;2.70;99.90;;;;;;5029297;28;20028;-76
2021/01/05 10:30:08;;;;;;;3.28;1.88;;;2.70;99.90;;;;;;5034969;28;20018;-76
2021/01/05 10:32:33;;;;;;;5.95;1.75;;;2.70;99.90;;;;;;5031531;28;20025;-76
2021/01/05 10:34:59;;;;;;;4.25;2.25;;;2.70;99.90;;;;;;5031555;28;20394;-76
2021/01/05 10:37:25;;;;;;;2.80;1.70;;;2.70;99.90;;;;;;5024972;28;20049;-76
2021/01/05 10:39:50;;;;;;;13.10;2.42;;;2.70;99.90;;;;;;5030300;28;20029;-76
2021/01/05 10:42:16;;;;;;;5.72;2.65;;;2.70;99.90;;;;;;5015785;28;20469;-76
2021/01/05 10:44:41;;;;;;;3.33;1.92;;;2.70;99.90;;;;;;5030017;28;20025;-77
2021/01/05 10:47:07;;;;;;;6.60;2.45;;;2.70;99.90;;;;;;5031451;28;20018;-76
2021/01/05 10:49:33;;;;;;;3.65;1.88;;;2.70;99.90;;;;;;5030092;28;20022;-77
2021/01/05 10:52:02;;;;;;;3.70;2.05;;;2.70;99.90;;;;;;5030803;28;20033;-77
2021/01/05 10:54:29;;;;;;;4.22;2.00;;;2.70;99.90;;;;;;5029300;28;20069;-76
2021/01/05 10:57:05;;;;;;;5.93;1.83;;;2.70;99.90;;;;;;5015806;28;20520;-77
2021/01/05 10:59:31;;;;;;;7.18;1.75;;;2.70;99.90;;;;;;5015593;28;20029;-77
2021/01/05 11:02:02;;;;;;;8.63;2.33;;;2.70;99.90;;;;;;5023931;28;20034;-77
2021/01/05 11:04:29;;;;;;;3.67;2.17;;;2.70;99.90;;;;;;5035088;28;20018;-77
2021/01/05 11:06:57;;;;;;;6.85;2.60;;;2.70;99.90;;;;;;5033692;28;20069;-77
2021/01/05 11:09:23;;;;;;;6.78;2.67;;;2.70;99.90;;;;;;5033949;28;20466;-77
2021/01/05 11:11:57;;;;;;;4.90;2.50;;;2.70;99.90;;;;;;5037870;28;20082;-77
2021/01/05 11:14:23;;;;;;;4.07;1.95;;;2.70;99.90;;;;;;5055076;28;20079;-77
2021/01/05 11:16:49;;;;;;;4.82;2.05;;;2.70;99.90;;;;;;5055023;28;20061;-77
2021/01/05 11:19:15;;;;;;;5.53;2.47;;;2.70;99.90;;;;;;5055387;28;20060;-77
2021/01/05 11:21:47;;;;;;;4.20;2.10;;;2.70;99.90;;;;;;5049543;28;20496;-77
2021/01/05 11:24:13;;;;;;;11.13;2.60;;;2.80;99.90;;;;;;5034887;28;20025;-77
2021/01/05 11:26:38;;;;;;;3.65;2.30;;;2.80;99.90;;;;;;5033620;28;20542;-77
2021/01/05 11:29:04;;;;;;;5.00;2.38;;;2.80;99.90;;;;;;5033417;28;20033;-76
2021/01/05 11:31:30;;;;;;;4.68;2.08;;;2.70;99.90;;;;;;5028662;28;20053;-76
2021/01/05 11:33:55;;;;;;;8.40;2.20;;;2.80;99.90;;;;;;5013625;28;20121;-76
2021/01/05 11:36:26;;;;;;;12.18;2.97;;;2.80;99.90;;;;;;5016826;28;20112;-76
2021/01/05 11:38:53;;;;;;;10.40;3.30;;;2.80;99.90;;;;;;5033483;28;20029;-75
2021/01/05 11:41:22;;;;;;;38.83;13.68;;;2.80;99.90;;;;;;5034537;28;20112;-76
2021/01/05 11:43:47;;;;;;;5.38;2.10;;;2.80;99.90;;;;;;5031841;28;20029;-77
2021/01/05 11:46:13;;;;;;;4.47;2.70;;;2.80;99.90;;;;;;5022943;28;20052;-77
2021/01/05 11:48:38;;;;;;;3.28;1.95;;;2.80;99.90;;;;;;5014817;28;20504;-77
2021/01/05 11:51:04;;;;;;;4.75;2.53;;;2.80;99.90;;;;;;5013252;28;20455;-76
2021/01/05 11:53:30;;;;;;;3.47;2.22;;;2.80;99.90;;;;;;5033630;28;20037;-77
2021/01/05 11:55:55;;;;;;;6.20;2.50;;;2.70;99.90;;;;;;5032917;28;20052;-76
2021/01/05 11:58:21;;;;;;;3.42;1.95;;;2.70;99.90;;;;;;5034420;28;20496;-78
2021/01/05 12:00:46;;;;;;;3.03;2.03;;;2.70;99.90;;;;;;5033844;28;20075;-77
2021/01/05 12:03:12;;;;;;;4.75;2.63;;;2.70;99.90;;;;;;5020061;28;20025;-77
2021/01/05 12:05:37;;;;;;;5.38;2.60;;;2.70;99.90;;;;;;5014244;28;20109;-76
2021/01/05 12:08:03;;;;;;;7.53;2.60;;;2.70;99.90;;;;;;5013388;28;20060;-76
2021/01/05 12:10:28;;;;;;;5.20;2.80;;;2.70;99.90;;;;;;5014136;28;20120;-76
2021/01/05 12:12:54;;;;;;;9.80;2.85;;;2.70;99.90;;;;;;5022809;28;20116;-76
2021/01/05 12:15:19;;;;;;;7.25;2.28;;;2.70;99.90;;;;;;5031520;28;20026;-76
2021/01/05 12:17:45;;;;;;;2.67;2.13;;;2.70;99.90;;;;;;5034106;28;20541;-76
2021/01/05 12:20:11;;;;;;;7.05;2.33;;;2.70;99.90;;;;;;5033565;28;20040;-76
2021/01/05 12:22:36;;;;;;;4.70;2.35;;;2.80;99.90;;;;;;5033361;28;20061;-76
2021/01/05 12:25:03;;;;;;;3.75;2.22;;;2.70;99.90;;;;;;5032440;28;20021;-76
2021/01/05 12:27:28;;;;;;;7.90;2.95;;;2.70;99.90;;;;;;5033846;28;20247;-76
2021/01/05 12:29:54;;;;;;;3.85;2.15;;;2.70;99.90;;;;;;5033640;28;20474;-76
2021/01/05 12:32:19;;;;;;;6.55;2.60;;;2.70;99.90;;;;;;5027521;28;20060;-76
2021/01/05 12:34:48;;;;;;;5.53;2.53;;;2.70;99.90;;;;;;5032302;28;20398;-76
2021/01/05 12:37:16;;;;;;;4.10;2.35;;;2.70;99.90;;;;;;5033394;28;20116;-76
2021/01/05 12:39:42;;;;;;;7.60;2.22;;;2.80;99.90;;;;;;5033595;28;20057;-75
2021/01/05 12:42:19;;;;;;;5.22;2.25;;;2.70;99.90;;;;;;5030950;28;20064;-76
2021/01/05 12:44:45;;;;;;;6.35;2.75;;;2.80;99.90;;;;;;5013495;28;20041;-76
2021/01/05 12:47:11;;;;;;;3.83;2.30;;;2.80;99.90;;;;;;5019157;28;20064;-76
2021/01/05 12:49:37;;;;;;;17.42;3.97;;;2.80;99.90;;;;;;5033437;28;20022;-76
2021/01/05 12:52:09;;;;;;;6.25;2.40;;;2.70;99.90;;;;;;5026849;28;20092;-76
2021/01/05 12:54:35;;;;;;;5.20;2.30;;;2.70;99.90;;;;;;5021628;28;20034;-76
2021/01/05 12:57:02;;;;;;;6.55;2.58;;;2.70;99.90;;;;;;5033032;28;20025;-76
2021/01/05 12:59:27;;;;;;;3.63;2.80;;;2.70;99.90;;;;;;5033165;28;20029;-76
2021/01/05 13:01:58;;;;;;;4.90;2.58;;;2.70;99.90;;;;;;5032915;28;20505;-76
2021/01/05 13:04:24;;;;;;;7.22;2.58;;;2.70;99.90;;;;;;5033048;28;20482;-76
2021/01/05 13:06:50;;;;;;;8.48;2.65;;;2.80;99.90;;;;;;5032897;28;20041;-76
2021/01/05 13:09:16;;;;;;;4.75;2.28;;;2.70;99.90;;;;;;5031391;28;20540;-75
2021/01/05 13:11:44;;;;;;;4.88;2.47;;;2.70;99.90;;;;;;5032713;28;20038;-76